createdAt,value
2023-04-15T00:01:43.887Z,97571.28
2023-04-15T00:06:53.001Z,97567.45
2023-04-15T00:11:54.672Z,97573.61
2023-04-15T00:16:57.387Z,97577.54
2023-04-15T00:22:00.784Z,97575.23
2023-04-15T00:27:02.407Z,97582.72
2023-04-15T00:32:04.456Z,97584.35
2023-04-15T00:37:06.186Z,97591.72
2023-04-15T00:42:07.830Z,97592.09
2023-04-15T00:47:11.224Z,97601.35
2023-04-15T00:52:13.231Z,97611.29
2023-04-15T00:57:14.826Z,97617.84
2023-04-15T01:02:16.958Z,97615.20
2023-04-15T01:07:19.407Z,97612.62
2023-04-15T01:12:21.154Z,97616.17
2023-04-15T01:17:24.821Z,97621.54
2023-04-15T01:22:27.830Z,97624.30
2023-04-15T01:27:30.348Z,97620.85
2023-04-15T01:32:32.388Z,97622.80
2023-04-15T01:37:34.157Z,97628.17
2023-04-15T01:42:38.771Z,97627.94
2023-04-15T01:47:40.493Z,97631.32
2023-04-15T01:52:44.746Z,97626.51
2023-04-15T01:57:46.670Z,97634.39
2023-04-15T02:02:49.560Z,97641.77
2023-04-15T02:07:51.722Z,97649.13
2023-04-15T02:12:54.362Z,97651.86
2023-04-15T02:17:57.003Z,97656.73
2023-04-15T02:22:58.792Z,97663.63
2023-04-15T02:28:00.545Z,97668.73
2023-04-15T02:33:03.304Z,97672.13
2023-04-15T02:38:04.957Z,97679.52
2023-04-15T02:43:07.327Z,97683.15
2023-04-15T02:48:09.849Z,97687.27
2023-04-15T02:53:11.710Z,97693.35
2023-04-15T02:58:13.497Z,97697.75
2023-04-15T03:03:15.539Z,97703.30
2023-04-15T03:08:17.411Z,97707.34
2023-04-15T03:13:20.564Z,97714.21
2023-04-15T03:18:23.509Z,97707.29
2023-04-15T03:23:25.598Z,97715.54
2023-04-15T03:28:29.584Z,97726.05
2023-04-15T03:33:32.196Z,97736.69
2023-04-15T03:38:34.064Z,97732.84
2023-04-15T03:43:35.753Z,97727.59
2023-04-15T03:48:37.594Z,97744.00
2023-04-15T03:53:39.224Z,97751.25
2023-04-15T03:58:40.861Z,97745.67
2023-04-15T04:03:42.964Z,97739.51
2023-04-15T04:08:44.683Z,97748.16
2023-04-15T04:13:46.577Z,97753.88
2023-04-15T04:18:48.544Z,97760.31
2023-04-15T04:23:50.709Z,97762.96
2023-04-15T04:28:52.333Z,97766.73
2023-04-15T04:33:53.976Z,97762.20
2023-04-15T04:38:56.184Z,97773.80
2023-04-15T04:43:57.941Z,97789.48
2023-04-15T04:48:59.948Z,97794.14
2023-04-15T04:54:03.706Z,97800.63
2023-04-15T04:59:05.798Z,97804.90
2023-04-15T05:04:07.910Z,97808.17
2023-04-15T05:09:09.705Z,97801.20
2023-04-15T05:14:11.490Z,97804.84
2023-04-15T05:19:13.281Z,97804.27
2023-04-15T05:24:14.872Z,97802.58
2023-04-15T05:29:16.692Z,97806.06
2023-04-15T05:34:18.435Z,97798.61
2023-04-15T05:39:20.074Z,97798.39
2023-04-15T05:44:21.759Z,97808.01
2023-04-15T05:49:23.971Z,97808.55
2023-04-15T05:54:27.850Z,97807.70
2023-04-15T05:59:29.610Z,97816.60
2023-04-15T06:04:32.746Z,97814.95
2023-04-15T06:09:34.694Z,97821.11
2023-04-15T06:14:36.310Z,97820.86
2023-04-15T06:19:38.141Z,97833.69
2023-04-15T06:24:39.828Z,97841.65
2023-04-15T06:29:41.464Z,97841.95
2023-04-15T06:34:43.290Z,97845.14
2023-04-15T06:39:44.940Z,97841.37
2023-04-15T06:44:46.980Z,97839.05
2023-04-15T06:49:48.599Z,97834.75
2023-04-15T06:54:50.226Z,97833.33
2023-04-15T06:59:54.550Z,97834.84
2023-04-15T07:04:57.021Z,97836.19
2023-04-15T07:09:58.717Z,97840.66
2023-04-15T07:15:00.379Z,97842.46
2023-04-15T07:20:02.691Z,97842.75
2023-04-15T07:25:05.040Z,97848.33
2023-04-15T07:30:07.440Z,97850.32
2023-04-15T07:35:10.715Z,97849.90
2023-04-15T07:40:12.611Z,97852.93
2023-04-15T07:45:14.273Z,97850.61
2023-04-15T07:50:16.250Z,97848.27
2023-04-15T07:55:20.048Z,97847.20
2023-04-15T08:00:22.167Z,97847.67
2023-04-15T08:05:24.064Z,97851.63
2023-04-15T08:10:25.913Z,97853.22
2023-04-15T08:15:28.424Z,97849.89
2023-04-15T08:20:30.201Z,97847.64
2023-04-15T08:25:31.810Z,97855.80
2023-04-15T08:30:33.661Z,97854.23
2023-04-15T08:35:35.436Z,97854.13
2023-04-15T08:40:45.521Z,97854.44
2023-04-15T08:45:48.690Z,97846.39
2023-04-15T08:50:51.356Z,97842.58
2023-04-15T08:55:57.301Z,97836.09
2023-04-15T09:00:58.926Z,97841.88
2023-04-15T09:06:00.867Z,97850.19
2023-04-15T09:11:05.624Z,97847.39
2023-04-15T09:16:08.377Z,97848.69
2023-04-15T09:21:15.626Z,97850.20
2023-04-15T09:26:17.317Z,97847.10
2023-04-15T09:31:29.440Z,97844.71
2023-04-15T09:36:51.792Z,97848.16
2023-04-15T09:42:07.126Z,97847.31
2023-04-15T09:47:08.736Z,97844.70
2023-04-15T09:52:14.031Z,97846.14
2023-04-15T09:57:15.844Z,97849.61
2023-04-15T10:02:20.776Z,97847.98
2023-04-15T10:07:23.410Z,97844.27
2023-04-15T10:12:27.316Z,97846.16
2023-04-15T10:17:35.539Z,97844.88
2023-04-15T10:22:38.143Z,97843.61
2023-04-15T10:27:42.182Z,97840.53
2023-04-15T10:32:45.166Z,97836.96
2023-04-15T10:37:46.988Z,97837.23
2023-04-15T10:42:48.530Z,97840.00
2023-04-15T10:47:57.599Z,97833.65
2023-04-15T10:52:59.627Z,97831.79
2023-04-15T10:58:02.304Z,97833.67
2023-04-15T11:03:09.233Z,97836.67
2023-04-15T11:08:13.077Z,97840.58
2023-04-15T11:13:17.291Z,97848.52
2023-04-15T11:18:22.231Z,97852.71
2023-04-15T11:23:29.060Z,97857.14
2023-04-15T11:28:32.098Z,97861.39
2023-04-15T11:33:35.005Z,97864.85
2023-04-15T11:38:38.025Z,97863.25
2023-04-15T11:43:39.730Z,97864.87
2023-04-15T11:48:44.821Z,97870.02
2023-04-15T11:53:48.699Z,97871.77
2023-04-15T11:58:57.154Z,97878.59
2023-04-15T12:04:01.474Z,97877.89
2023-04-15T12:09:07.449Z,97880.24
2023-04-15T12:14:10.671Z,97879.85
2023-04-15T12:19:14.444Z,97876.66
2023-04-15T12:24:21.177Z,97874.91
2023-04-15T12:29:26.762Z,97874.29
2023-04-15T12:34:50.496Z,97878.52
2023-04-15T12:39:53.931Z,97874.42
2023-04-15T12:44:55.615Z,97875.05
2023-04-15T12:49:57.230Z,97878.34
2023-04-15T12:55:00.417Z,97873.74
2023-04-15T13:00:02.392Z,97874.16
2023-04-15T13:05:04.474Z,97870.77
2023-04-15T13:10:06.457Z,97869.88
2023-04-15T13:15:11.276Z,97871.65
2023-04-15T13:20:12.893Z,97874.98
2023-04-15T13:25:23.429Z,97873.89
2023-04-15T13:30:25.031Z,97874.48
2023-04-15T13:35:26.815Z,97878.10
2023-04-15T13:40:28.671Z,97884.29
2023-04-15T13:45:30.805Z,97885.16
2023-04-15T13:50:32.479Z,97881.69
2023-04-15T13:55:35.655Z,97885.33
2023-04-15T14:00:37.501Z,97885.26
2023-04-15T14:05:39.155Z,97890.11
2023-04-15T14:10:41.903Z,97894.70
2023-04-15T14:15:43.582Z,97899.64
2023-04-15T14:20:45.428Z,97906.77
2023-04-15T14:25:48.363Z,97911.16
2023-04-15T14:30:50.377Z,97921.05
2023-04-15T14:35:52.080Z,97932.39
2023-04-15T14:40:53.758Z,97939.11
2023-04-15T14:45:55.773Z,97946.14
2023-04-15T14:50:58.192Z,97952.84
2023-04-15T14:56:00.199Z,97962.36
2023-04-15T15:01:03.212Z,97959.95
2023-04-15T15:06:04.956Z,97961.04
2023-04-15T15:11:06.657Z,97963.60
2023-04-15T15:16:08.439Z,97958.52
2023-04-15T15:21:10.934Z,97967.33
2023-04-15T15:26:12.672Z,97978.73
2023-04-15T15:31:14.524Z,97983.42
2023-04-15T15:36:16.353Z,97986.25
2023-04-15T15:41:18.240Z,97997.70
2023-04-15T15:46:20.005Z,98009.10
2023-04-15T15:51:21.687Z,98012.08
2023-04-15T15:56:23.447Z,98012.51
2023-04-15T16:01:25.540Z,98024.67
2023-04-15T16:06:27.586Z,98039.52
2023-04-15T16:11:29.799Z,98056.35
2023-04-15T16:16:31.516Z,98072.77
2023-04-15T16:21:34.440Z,98080.15
2023-04-15T16:26:36.635Z,98103.36
2023-04-15T16:31:39.996Z,98094.70
2023-04-15T16:36:42.177Z,98062.02
2023-04-15T16:41:43.885Z,98052.81
2023-04-15T16:46:45.494Z,98051.13
2023-04-15T16:51:47.344Z,98055.52
2023-04-15T16:56:49.162Z,98058.85
2023-04-15T17:01:50.954Z,98067.81
2023-04-15T17:06:53.088Z,98090.50
2023-04-15T17:11:54.798Z,98107.78
2023-04-15T17:16:56.446Z,98124.76
2023-04-15T17:21:58.165Z,98135.46
2023-04-15T17:27:02.649Z,98145.92
2023-04-15T17:32:05.692Z,98147.83
2023-04-15T17:37:07.388Z,98152.27
2023-04-15T17:42:12.701Z,98158.54
2023-04-15T17:47:15.398Z,98174.18
2023-04-15T17:52:16.976Z,98193.80
2023-04-15T17:57:18.632Z,98212.02
2023-04-15T18:02:20.681Z,98232.16
2023-04-15T18:07:22.646Z,98236.29
2023-04-15T18:12:24.347Z,98244.85
2023-04-15T18:17:26.164Z,98247.54
2023-04-15T18:22:28.075Z,98250.81
2023-04-15T18:27:34.371Z,98256.39
2023-04-15T18:32:36.480Z,98255.94
2023-04-15T18:37:38.232Z,98257.40
2023-04-15T18:42:39.948Z,98256.45
2023-04-15T18:47:42.299Z,98258.78
2023-04-15T18:52:44.426Z,98264.70
2023-04-15T18:57:46.793Z,98269.61
2023-04-15T19:02:50.866Z,98276.39
2023-04-15T19:07:52.649Z,98276.85
2023-04-15T19:12:55.477Z,98284.52
2023-04-15T19:17:58.181Z,98302.86
2023-04-15T19:22:59.938Z,98309.20
2023-04-15T19:28:01.718Z,98323.71
2023-04-15T19:33:03.853Z,98329.98
2023-04-15T19:38:05.709Z,98324.09
2023-04-15T19:43:07.372Z,98321.40
2023-04-15T19:48:09.203Z,98319.17
2023-04-15T19:53:10.914Z,98319.95
2023-04-15T19:58:12.724Z,98319.41
2023-04-15T20:03:14.707Z,98314.33
2023-04-15T20:08:16.585Z,98314.52
2023-04-15T20:13:18.515Z,98317.78
2023-04-15T20:18:20.344Z,98320.75
2023-04-15T20:23:22.623Z,98319.96
2023-04-15T20:28:27.486Z,98326.28
2023-04-15T20:33:29.379Z,98330.27
2023-04-15T20:38:31.030Z,98336.52
2023-04-15T20:43:33.022Z,98342.96
2023-04-15T20:48:34.664Z,98346.34
2023-04-15T20:53:36.460Z,98349.95
2023-04-15T20:58:38.652Z,98352.64
2023-04-15T21:03:40.940Z,98354.52
2023-04-15T21:08:42.768Z,98359.40
2023-04-15T21:13:51.581Z,98373.77
2023-04-15T21:18:54.016Z,98382.92
2023-04-15T21:23:55.633Z,98396.16
2023-04-15T21:28:57.334Z,98397.69
2023-04-15T21:33:59.114Z,98409.34
2023-04-15T21:39:01.117Z,98417.96
2023-04-15T21:44:04.262Z,98413.92
2023-04-15T21:49:09.039Z,98416.88
2023-04-15T21:54:19.574Z,98416.58
2023-04-15T21:59:21.610Z,98422.36
2023-04-15T22:04:23.602Z,98430.16
2023-04-15T22:09:25.474Z,98429.40
2023-04-15T22:14:28.334Z,98433.07
2023-04-15T22:19:29.967Z,98443.13
2023-04-15T22:24:39.537Z,98447.63
2023-04-15T22:29:42.740Z,98454.98
2023-04-15T22:34:44.370Z,98454.52
2023-04-15T22:39:46.018Z,98458.12
2023-04-15T22:44:48.291Z,98464.16
2023-04-15T22:49:49.904Z,98476.27
2023-04-15T22:54:51.633Z,98484.81
2023-04-15T22:59:53.859Z,98492.64
2023-04-15T23:04:55.889Z,98494.26
2023-04-15T23:10:00.303Z,98497.98
2023-04-15T23:15:24.577Z,98504.73
2023-04-15T23:20:26.192Z,98509.35
2023-04-15T23:25:27.965Z,98509.66
2023-04-15T23:30:30.120Z,98513.28
2023-04-15T23:35:31.746Z,98512.54
2023-04-15T23:40:34.251Z,98518.31
2023-04-15T23:45:36.836Z,98519.09
2023-04-15T23:50:39.843Z,98527.55
2023-04-15T23:55:41.486Z,98536.70
